createdAt,value
2019-01-06T00:02:17.519Z,6.40
2019-01-06T00:05:19.239Z,6.40
2019-01-06T00:08:07.624Z,6.40
2019-01-06T00:10:54.643Z,6.40
2019-01-06T00:13:46.313Z,6.40
2019-01-06T00:16:37.671Z,6.40
2019-01-06T00:19:25.111Z,6.40
2019-01-06T00:22:12.279Z,6.40
2019-01-06T00:25:01.048Z,6.40
2019-01-06T00:28:04.870Z,6.50
2019-01-06T00:30:53.226Z,6.50
2019-01-06T00:33:41.496Z,6.50
2019-01-06T00:36:42.107Z,6.50
2019-01-06T00:39:30.456Z,6.50
2019-01-06T00:42:18.299Z,6.50
2019-01-06T00:45:18.737Z,6.50
2019-01-06T00:48:22.353Z,6.50
2019-01-06T00:51:20.350Z,6.50
2019-01-06T00:54:07.680Z,6.50
2019-01-06T00:56:54.675Z,6.50
2019-01-06T00:59:45.886Z,6.50
2019-01-06T01:02:46.580Z,6.50
2019-01-06T01:05:53.084Z,6.50
2019-01-06T01:08:40.352Z,6.50
2019-01-06T01:11:25.782Z,6.50
2019-01-06T01:14:12.750Z,6.50
2019-01-06T01:17:01.700Z,6.50
2019-01-06T01:19:47.193Z,6.60
2019-01-06T01:22:44.827Z,6.50
2019-01-06T01:25:51.600Z,6.50
2019-01-06T01:28:38.808Z,6.50
2019-01-06T01:31:26.931Z,6.50
2019-01-06T01:34:15.253Z,6.50
2019-01-06T01:37:15.565Z,6.50
2019-01-06T01:40:09.718Z,6.50
2019-01-06T01:42:56.702Z,6.50
2019-01-06T01:45:40.977Z,6.40
2019-01-06T01:48:27.779Z,6.50
2019-01-06T01:51:16.100Z,6.40
2019-01-06T01:54:06.122Z,6.40
2019-01-06T01:56:57.505Z,6.40
2019-01-06T01:59:45.794Z,6.40
2019-01-06T02:02:33.278Z,6.50
2019-01-06T02:05:20.126Z,6.50
2019-01-06T02:08:06.559Z,6.50
2019-01-06T02:11:04.073Z,6.50
2019-01-06T02:13:47.930Z,6.50
2019-01-06T02:16:38.500Z,6.50
2019-01-06T02:19:42.190Z,6.50
2019-01-06T02:22:45.643Z,6.50
2019-01-06T02:25:34.007Z,6.50
2019-01-06T02:28:21.116Z,6.40
2019-01-06T02:31:08.513Z,6.40
2019-01-06T02:34:02.649Z,6.40
2019-01-06T02:36:57.036Z,6.30
2019-01-06T02:39:48.535Z,6.30
2019-01-06T02:42:35.782Z,6.30
2019-01-06T02:45:27.726Z,6.40
2019-01-06T02:48:31.256Z,6.40
2019-01-06T02:51:34.785Z,6.40
2019-01-06T02:54:29.290Z,6.40
2019-01-06T02:57:20.653Z,6.40
2019-01-06T03:00:07.658Z,6.40
2019-01-06T03:02:54.676Z,6.40
2019-01-06T03:05:49.030Z,6.30
2019-01-06T03:08:35.999Z,6.30
2019-01-06T03:11:23.395Z,6.30
2019-01-06T03:14:10.685Z,6.30
2019-01-06T03:16:56.101Z,6.30
2019-01-06T03:19:44.446Z,6.20
2019-01-06T03:22:48.095Z,6.20
2019-01-06T03:25:51.942Z,6.20
2019-01-06T03:28:43.180Z,6.20
2019-01-06T03:31:21.056Z,6.10
2019-01-06T03:34:21.364Z,6.10
2019-01-06T03:37:12.664Z,6.20
2019-01-06T03:40:01.019Z,6.20
2019-01-06T03:42:48.275Z,6.20
2019-01-06T03:45:45.993Z,6.20
2019-01-06T03:48:33.194Z,6.20
2019-01-06T03:51:17.017Z,6.20
2019-01-06T03:54:10.761Z,6.20
2019-01-06T03:57:05.171Z,6.20
2019-01-06T03:59:56.560Z,6.20
2019-01-06T04:02:38.991Z,6.20
2019-01-06T04:05:42.547Z,6.30
2019-01-06T04:08:33.749Z,6.30
2019-01-06T04:11:22.190Z,6.30
2019-01-06T04:14:09.450Z,6.40
2019-01-06T04:16:43.698Z,6.40
2019-01-06T04:19:31.142Z,6.40
2019-01-06T04:22:37.806Z,6.40
2019-01-06T04:25:26.135Z,6.50
2019-01-06T04:28:12.935Z,6.50
2019-01-06T04:31:01.289Z,6.50
2019-01-06T04:33:55.781Z,6.50
2019-01-06T04:36:59.119Z,6.50
2019-01-06T04:39:43.736Z,6.50
2019-01-06T04:42:47.503Z,6.50
2019-01-06T04:45:35.030Z,6.50
2019-01-06T04:48:29.700Z,6.50
2019-01-06T04:51:33.499Z,6.50
2019-01-06T04:54:29.936Z,6.50
2019-01-06T04:57:19.448Z,6.50
2019-01-06T05:00:07.722Z,6.50
2019-01-06T05:02:54.738Z,6.40
2019-01-06T05:05:43.074Z,6.40
2019-01-06T05:08:34.506Z,6.40
2019-01-06T05:11:32.030Z,6.40
2019-01-06T05:14:32.636Z,6.40
2019-01-06T05:17:20.064Z,6.40
2019-01-06T05:20:07.764Z,6.40
2019-01-06T05:22:55.029Z,6.40
2019-01-06T05:25:43.415Z,6.40
2019-01-06T05:28:37.787Z,6.50
2019-01-06T05:31:29.195Z,6.50
2019-01-06T05:34:24.079Z,6.40
2019-01-06T05:37:11.319Z,6.40
2019-01-06T05:40:11.729Z,6.40
2019-01-06T05:42:59.052Z,6.50
2019-01-06T05:45:46.385Z,6.40
2019-01-06T05:48:32.416Z,6.40
2019-01-06T05:51:20.754Z,6.40
2019-01-06T05:54:18.210Z,6.40
2019-01-06T05:57:12.102Z,6.40
2019-01-06T06:00:03.711Z,6.40
2019-01-06T06:02:58.074Z,6.50
2019-01-06T06:05:46.407Z,6.50
2019-01-06T06:08:32.103Z,6.40
2019-01-06T06:11:20.399Z,6.40
2019-01-06T06:14:07.599Z,6.40
2019-01-06T06:16:45.119Z,6.50
2019-01-06T06:19:48.723Z,6.40
2019-01-06T06:22:39.744Z,6.40
2019-01-06T06:25:37.742Z,6.30
2019-01-06T06:28:25.189Z,6.30
2019-01-06T06:31:22.686Z,6.40
2019-01-06T06:34:07.708Z,6.30
2019-01-06T06:37:01.854Z,6.30
2019-01-06T06:39:48.675Z,6.30
2019-01-06T06:42:46.470Z,6.30
2019-01-06T06:45:33.672Z,6.30
2019-01-06T06:48:24.517Z,6.30
2019-01-06T06:51:27.994Z,6.30
2019-01-06T06:54:16.311Z,6.30
2019-01-06T06:57:50.773Z,6.30
2019-01-06T07:01:16.148Z,6.30
2019-01-06T07:04:19.864Z,6.30
2019-01-06T07:07:06.787Z,6.40
2019-01-06T07:09:55.110Z,6.40
2019-01-06T07:12:52.584Z,6.30
2019-01-06T07:15:44.002Z,6.30
2019-01-06T07:18:44.171Z,6.40
2019-01-06T07:21:32.525Z,6.40
2019-01-06T07:24:32.946Z,6.30
2019-01-06T07:27:39.419Z,6.30
2019-01-06T07:30:36.870Z,6.30
2019-01-06T07:33:14.771Z,6.30
2019-01-06T07:36:21.579Z,6.30
2019-01-06T07:39:28.043Z,6.30
2019-01-06T07:42:08.751Z,6.20
2019-01-06T07:45:00.273Z,6.20
2019-01-06T07:48:03.940Z,6.20
2019-01-06T07:51:10.202Z,6.20
2019-01-06T07:54:01.114Z,6.20
2019-01-06T07:56:43.312Z,6.20
2019-01-06T07:59:29.673Z,6.20
2019-01-06T08:02:08.631Z,6.20
2019-01-06T08:05:07.070Z,6.30
2019-01-06T08:07:51.374Z,6.30
2019-01-06T08:10:57.820Z,6.30
2019-01-06T08:13:45.036Z,6.30
2019-01-06T08:16:45.541Z,6.40
2019-01-06T08:19:25.655Z,6.40
2019-01-06T08:22:17.242Z,6.40
2019-01-06T08:25:08.887Z,6.40
2019-01-06T08:27:58.286Z,6.40
2019-01-06T08:30:46.650Z,6.50
2019-01-06T08:33:47.341Z,6.50
2019-01-06T08:36:44.796Z,6.60
2019-01-06T08:39:32.671Z,6.60
2019-01-06T08:42:21.016Z,6.70
2019-01-06T08:45:09.374Z,6.70
2019-01-06T08:48:08.374Z,6.70
2019-01-06T08:50:56.760Z,6.80
2019-01-06T08:53:43.963Z,6.70
2019-01-06T08:56:32.505Z,6.70
2019-01-06T08:59:24.004Z,6.70
2019-01-06T09:02:27.403Z,6.70
2019-01-06T09:05:27.959Z,6.60
2019-01-06T09:08:34.639Z,6.70
2019-01-06T09:11:37.975Z,6.70
2019-01-06T09:14:35.277Z,6.80
2019-01-06T09:17:27.553Z,6.80
2019-01-06T09:20:09.647Z,6.80
2019-01-06T09:22:53.688Z,6.80
2019-01-06T09:25:57.197Z,6.80
2019-01-06T09:28:45.534Z,6.80
2019-01-06T09:31:32.873Z,6.90
2019-01-06T09:34:20.364Z,7.00
2019-01-06T09:37:14.840Z,7.10
2019-01-06T09:40:18.626Z,7.10
2019-01-06T09:43:11.992Z,7.10
2019-01-06T09:46:18.159Z,7.10
2019-01-06T09:49:15.737Z,7.20
2019-01-06T09:52:04.084Z,7.20
2019-01-06T09:54:51.111Z,7.20
2019-01-06T09:57:38.243Z,7.10
2019-01-06T10:00:33.299Z,7.10
2019-01-06T10:03:36.711Z,7.10
2019-01-06T10:06:27.928Z,7.10
2019-01-06T10:09:22.222Z,7.10
2019-01-06T10:12:09.316Z,7.10
2019-01-06T10:15:03.930Z,7.10
2019-01-06T10:17:55.328Z,7.20
2019-01-06T10:20:42.547Z,7.10
2019-01-06T10:23:33.663Z,7.10
2019-01-06T10:26:27.054Z,7.20
2019-01-06T10:29:18.443Z,7.20
2019-01-06T10:32:12.739Z,7.30
2019-01-06T10:35:19.593Z,7.30
2019-01-06T10:38:23.479Z,7.40
2019-01-06T10:41:26.871Z,7.50
2019-01-06T10:44:30.468Z,7.60
2019-01-06T10:47:18.847Z,7.70
2019-01-06T10:50:06.296Z,7.80
2019-01-06T10:52:54.652Z,7.80
2019-01-06T10:55:41.518Z,7.70
2019-01-06T10:58:42.026Z,7.70
2019-01-06T11:01:29.114Z,7.70
2019-01-06T11:04:17.479Z,7.70
2019-01-06T11:07:07.511Z,7.70
2019-01-06T11:09:51.913Z,7.80
2019-01-06T11:12:38.867Z,7.80
2019-01-06T11:15:25.785Z,7.80
2019-01-06T11:18:13.059Z,7.80
2019-01-06T11:21:00.314Z,7.80
2019-01-06T11:23:47.559Z,7.80
2019-01-06T11:26:44.954Z,7.80
2019-01-06T11:29:27.352Z,7.80
2019-01-06T11:32:14.386Z,7.80
2019-01-06T11:35:18.121Z,7.80
2019-01-06T11:38:12.304Z,8.00
2019-01-06T11:41:07.929Z,8.20
2019-01-06T11:43:50.692Z,8.40
2019-01-06T11:46:48.051Z,8.60
2019-01-06T11:49:35.286Z,8.80
2019-01-06T11:52:26.586Z,8.80
2019-01-06T11:55:14.905Z,8.80
2019-01-06T11:58:03.218Z,8.80
2019-01-06T12:00:50.215Z,8.80
2019-01-06T12:03:53.669Z,8.70
2019-01-06T12:06:54.169Z,8.70
2019-01-06T12:10:00.887Z,8.70
2019-01-06T12:12:51.820Z,8.60
2019-01-06T12:15:38.755Z,8.50
2019-01-06T12:18:25.788Z,8.40
2019-01-06T12:21:32.307Z,8.30
2019-01-06T12:24:23.458Z,8.30
2019-01-06T12:27:12.484Z,8.30
2019-01-06T12:30:15.870Z,8.30
2019-01-06T12:32:57.918Z,8.30
2019-01-06T12:35:52.057Z,8.30
2019-01-06T12:38:45.284Z,8.50
2019-01-06T12:41:52.068Z,8.80
2019-01-06T12:44:49.325Z,9.00
2019-01-06T12:47:40.982Z,9.20
2019-01-06T12:50:39.728Z,9.40
2019-01-06T12:53:26.649Z,9.40
2019-01-06T12:56:18.044Z,9.30
2019-01-06T12:59:18.165Z,9.20
2019-01-06T13:02:24.747Z,9.20
2019-01-06T13:05:25.455Z,9.20
2019-01-06T13:08:13.574Z,9.30
2019-01-06T13:11:01.428Z,9.30
2019-01-06T13:14:05.177Z,9.20
2019-01-06T13:16:52.428Z,9.10
2019-01-06T13:19:39.770Z,9.10
2019-01-06T13:22:27.152Z,9.30
2019-01-06T13:25:22.932Z,9.60
2019-01-06T13:28:19.163Z,9.60
2019-01-06T13:31:06.151Z,9.40
2019-01-06T13:33:53.495Z,9.20
2019-01-06T13:36:40.673Z,9.10
2019-01-06T13:39:42.960Z,9.00
2019-01-06T13:42:32.115Z,8.90
2019-01-06T13:45:20.276Z,8.80
2019-01-06T13:48:07.200Z,8.70
2019-01-06T13:51:01.655Z,8.70
2019-01-06T13:53:48.592Z,8.70
2019-01-06T13:56:37.040Z,8.60
2019-01-06T13:59:24.427Z,8.50
2019-01-06T14:02:18.600Z,8.50
2019-01-06T14:05:22.002Z,8.50
2019-01-06T14:08:19.989Z,8.50
2019-01-06T14:11:07.104Z,8.40
2019-01-06T14:14:10.301Z,8.40
2019-01-06T14:16:52.802Z,8.30
2019-01-06T14:19:39.691Z,8.30
2019-01-06T14:22:33.848Z,8.30
2019-01-06T14:25:28.261Z,8.30
2019-01-06T14:28:15.406Z,8.30
2019-01-06T14:31:03.802Z,8.20
2019-01-06T14:33:54.963Z,8.10
2019-01-06T14:36:43.348Z,8.10
2019-01-06T14:39:30.406Z,8.00
2019-01-06T14:42:21.523Z,7.90
2019-01-06T14:45:12.696Z,7.90
2019-01-06T14:47:59.726Z,7.90
2019-01-06T14:51:00.154Z,7.90
2019-01-06T14:53:54.696Z,8.00
2019-01-06T14:56:41.829Z,7.90
2019-01-06T14:59:36.189Z,7.90
2019-01-06T15:02:24.538Z,7.90
2019-01-06T15:05:11.789Z,7.90
2019-01-06T15:08:01.904Z,7.80
2019-01-06T15:10:51.127Z,7.90
2019-01-06T15:13:45.797Z,7.80
2019-01-06T15:16:32.887Z,7.80
2019-01-06T15:19:24.397Z,7.80
2019-01-06T15:22:31.144Z,7.80
2019-01-06T15:25:15.387Z,7.80
2019-01-06T15:28:06.498Z,7.70
2019-01-06T15:30:53.830Z,7.70
2019-01-06T15:33:57.600Z,7.70
2019-01-06T15:36:44.358Z,7.60
2019-01-06T15:39:31.316Z,7.60
2019-01-06T15:42:22.766Z,7.60
2019-01-06T15:45:09.979Z,7.70
2019-01-06T15:48:01.097Z,7.70
2019-01-06T15:50:50.797Z,7.60
2019-01-06T15:53:42.174Z,7.60
2019-01-06T15:56:24.477Z,7.60
2019-01-06T15:59:11.860Z,7.70
2019-01-06T16:02:12.869Z,7.60
2019-01-06T16:05:10.151Z,7.60
2019-01-06T16:08:01.683Z,7.50
2019-01-06T16:10:56.855Z,7.50
2019-01-06T16:14:01.969Z,7.50
2019-01-06T16:16:59.376Z,7.50
2019-01-06T16:19:57.672Z,7.50
2019-01-06T16:22:55.137Z,7.50
2019-01-06T16:25:35.662Z,7.50
2019-01-06T16:28:23.232Z,7.60
2019-01-06T16:31:20.887Z,7.50
2019-01-06T16:34:09.235Z,7.50
2019-01-06T16:36:56.850Z,7.50
2019-01-06T16:40:03.657Z,7.50
2019-01-06T16:43:04.033Z,7.50
2019-01-06T16:46:04.317Z,7.50
2019-01-06T16:49:06.133Z,7.50
2019-01-06T16:51:53.183Z,7.50
2019-01-06T16:54:47.798Z,7.60
2019-01-06T16:57:36.196Z,7.50
2019-01-06T17:00:23.728Z,7.50
2019-01-06T17:03:18.158Z,7.60
2019-01-06T17:06:08.946Z,7.50
2019-01-06T17:08:55.942Z,7.50
2019-01-06T17:11:43.246Z,7.50
2019-01-06T17:14:37.643Z,7.50
2019-01-06T17:17:32.034Z,7.50
2019-01-06T17:20:18.708Z,7.50
2019-01-06T17:23:07.057Z,7.50
2019-01-06T17:25:54.351Z,7.40
2019-01-06T17:28:58.782Z,7.40
2019-01-06T17:31:46.039Z,7.40
2019-01-06T17:34:33.199Z,7.40
2019-01-06T17:37:27.500Z,7.30
2019-01-06T17:40:18.867Z,7.30
2019-01-06T17:43:16.677Z,7.40
2019-01-06T17:46:03.746Z,7.40
2019-01-06T17:48:56.612Z,7.40
2019-01-06T17:51:54.128Z,7.40
2019-01-06T17:54:45.534Z,7.40
2019-01-06T17:57:32.767Z,7.40
2019-01-06T18:00:24.115Z,7.40
2019-01-06T18:03:18.626Z,7.30
2019-01-06T18:06:18.968Z,7.30
2019-01-06T18:09:06.117Z,7.20
2019-01-06T18:12:06.592Z,7.30
2019-01-06T18:14:53.777Z,7.30
2019-01-06T18:17:41.352Z,7.30
2019-01-06T18:20:29.738Z,7.20
2019-01-06T18:23:16.803Z,7.30
2019-01-06T18:26:20.485Z,7.20
2019-01-06T18:29:07.552Z,7.20
2019-01-06T18:32:04.753Z,7.20
2019-01-06T18:35:04.542Z,7.20
2019-01-06T18:37:58.976Z,7.10
2019-01-06T18:40:50.394Z,7.20
2019-01-06T18:43:57.487Z,7.20
2019-01-06T18:46:48.587Z,7.20
2019-01-06T18:49:39.743Z,7.20
2019-01-06T18:52:21.183Z,7.20
2019-01-06T18:55:18.281Z,7.20
2019-01-06T18:58:18.793Z,7.20
2019-01-06T19:01:09.919Z,7.20
2019-01-06T19:04:07.401Z,7.20
2019-01-06T19:06:50.701Z,7.20
2019-01-06T19:09:37.645Z,7.20
2019-01-06T19:12:41.399Z,7.10
2019-01-06T19:15:28.572Z,7.20
2019-01-06T19:18:16.944Z,7.10
2019-01-06T19:20:59.038Z,7.10
2019-01-06T19:23:47.440Z,7.10
2019-01-06T19:26:41.912Z,7.10
2019-01-06T19:29:36.093Z,7.10
2019-01-06T19:32:23.300Z,7.10
2019-01-06T19:35:10.572Z,7.10
2019-01-06T19:38:11.161Z,7.10
2019-01-06T19:41:14.839Z,7.10
2019-01-06T19:44:07.563Z,7.10
2019-01-06T19:47:01.259Z,7.10
2019-01-06T19:49:53.045Z,7.00
2019-01-06T19:52:53.762Z,7.00
2019-01-06T19:55:50.519Z,7.00
2019-01-06T19:58:50.934Z,7.00
2019-01-06T20:01:42.542Z,7.00
2019-01-06T20:04:34.180Z,6.90
2019-01-06T20:07:21.711Z,6.90
2019-01-06T20:10:08.777Z,6.90
2019-01-06T20:12:55.798Z,7.00
2019-01-06T20:15:53.278Z,7.00
2019-01-06T20:18:51.325Z,7.00
2019-01-06T20:21:38.414Z,7.00
2019-01-06T20:24:25.632Z,7.00
2019-01-06T20:27:18.377Z,7.00
2019-01-06T20:30:18.583Z,7.00
2019-01-06T20:33:05.571Z,7.00
2019-01-06T20:35:54.502Z,7.00
2019-01-06T20:38:38.630Z,7.00
2019-01-06T20:41:25.827Z,7.00
2019-01-06T20:44:17.058Z,7.00
2019-01-06T20:47:11.706Z,7.10
2019-01-06T20:49:58.877Z,7.10
2019-01-06T20:52:46.121Z,7.10
2019-01-06T20:55:52.981Z,7.10
2019-01-06T20:58:41.374Z,7.10
2019-01-06T21:01:28.558Z,7.10
2019-01-06T21:04:15.531Z,7.00
2019-01-06T21:07:09.800Z,7.00
2019-01-06T21:09:48.935Z,7.10
2019-01-06T21:12:43.421Z,7.00
2019-01-06T21:15:30.415Z,7.00
2019-01-06T21:18:24.793Z,7.00
2019-01-06T21:21:22.364Z,7.00
2019-01-06T21:24:17.099Z,6.90
2019-01-06T21:27:11.787Z,6.90
2019-01-06T21:30:06.326Z,6.90
2019-01-06T21:32:44.092Z,6.90
2019-01-06T21:35:32.416Z,6.90
2019-01-06T21:38:14.016Z,6.90
2019-01-06T21:41:08.192Z,6.90
2019-01-06T21:43:59.054Z,6.90
2019-01-06T21:46:45.970Z,6.80
2019-01-06T21:49:33.270Z,6.80
2019-01-06T21:52:30.538Z,6.70
2019-01-06T21:55:17.593Z,6.70
2019-01-06T21:58:16.531Z,6.70
2019-01-06T22:01:03.425Z,6.70
2019-01-06T22:04:07.116Z,6.70
2019-01-06T22:06:58.481Z,6.70
2019-01-06T22:10:05.186Z,6.70
2019-01-06T22:12:52.573Z,6.60
2019-01-06T22:15:46.982Z,6.70
2019-01-06T22:18:41.383Z,6.60
2019-01-06T22:21:35.777Z,6.60
2019-01-06T22:24:36.452Z,6.50
2019-01-06T22:27:43.196Z,6.40
2019-01-06T22:30:30.122Z,6.30
2019-01-06T22:33:19.078Z,6.20
2019-01-06T22:36:06.202Z,6.10
2019-01-06T22:39:03.872Z,6.00
2019-01-06T22:41:51.149Z,5.90
2019-01-06T22:44:48.580Z,5.80
2019-01-06T22:47:35.610Z,5.60
2019-01-06T22:50:27.071Z,5.50
2019-01-06T22:53:10.431Z,5.40
2019-01-06T22:56:07.953Z,5.30
2019-01-06T22:58:54.797Z,5.20
2019-01-06T23:01:52.194Z,5.10
2019-01-06T23:04:39.120Z,5.00
2019-01-06T23:07:26.358Z,5.00
2019-01-06T23:10:20.780Z,4.90
2019-01-06T23:13:15.204Z,4.90
2019-01-06T23:16:03.517Z,4.80
2019-01-06T23:18:57.668Z,4.80
2019-01-06T23:21:44.943Z,4.80
2019-01-06T23:24:48.609Z,4.80
2019-01-06T23:27:46.273Z,4.80
2019-01-06T23:30:33.456Z,4.70
2019-01-06T23:33:28.085Z,4.60
2019-01-06T23:36:15.280Z,4.50
2019-01-06T23:39:03.597Z,4.40
2019-01-06T23:41:51.959Z,4.40
2019-01-06T23:44:55.655Z,4.30
2019-01-06T23:47:44.013Z,4.30
2019-01-06T23:50:35.605Z,4.20
2019-01-06T23:53:19.958Z,4.20
2019-01-06T23:56:05.865Z,4.20
2019-01-06T23:59:09.275Z,4.10
